createdAt,value
2023-07-21T00:01:15.175Z,3.47
2023-07-21T00:03:44.681Z,3.40
2023-07-21T00:06:18.815Z,3.63
2023-07-21T00:08:47.805Z,2.90
2023-07-21T00:11:16.588Z,3.10
2023-07-21T00:13:45.650Z,3.90
2023-07-21T00:16:14.452Z,3.70
2023-07-21T00:18:43.356Z,3.70
2023-07-21T00:21:12.231Z,3.00
2023-07-21T00:23:42.441Z,4.00
2023-07-21T00:26:11.196Z,3.80
2023-07-21T00:28:40.707Z,3.70
2023-07-21T00:31:09.524Z,3.70
2023-07-21T00:33:38.311Z,3.70
2023-07-21T00:36:07.498Z,3.63
2023-07-21T00:38:36.501Z,3.47
2023-07-21T00:41:06.642Z,3.50
2023-07-21T00:43:35.806Z,4.30
2023-07-21T00:46:04.598Z,3.60
2023-07-21T00:48:34.079Z,3.50
2023-07-21T00:51:03.010Z,3.60
2023-07-21T00:53:33.067Z,3.30
2023-07-21T00:56:03.159Z,3.40
2023-07-21T00:58:33.866Z,4.10
2023-07-21T01:01:03.361Z,3.60
2023-07-21T01:03:32.302Z,3.43
2023-07-21T01:06:02.021Z,3.67
2023-07-21T01:08:31.274Z,3.23
2023-07-21T01:11:03.101Z,3.67
2023-07-21T01:13:34.283Z,3.57
2023-07-21T01:16:04.510Z,3.40
2023-07-21T01:18:33.764Z,3.70
2023-07-21T01:21:03.673Z,3.57
2023-07-21T01:23:41.235Z,3.17
2023-07-21T01:26:13.187Z,3.17
2023-07-21T01:28:43.855Z,3.13
2023-07-21T01:31:15.128Z,3.57
2023-07-21T01:33:45.311Z,3.57
2023-07-21T01:36:15.542Z,4.00
2023-07-21T01:38:45.224Z,4.03
2023-07-21T01:41:16.024Z,3.67
2023-07-21T01:43:46.326Z,3.10
2023-07-21T01:46:15.223Z,4.20
2023-07-21T01:48:49.463Z,4.10
2023-07-21T01:51:20.913Z,3.70
2023-07-21T01:53:56.210Z,4.43
2023-07-21T01:56:31.953Z,3.80
2023-07-21T01:59:05.015Z,4.53
2023-07-21T02:01:34.853Z,4.30
2023-07-21T02:04:04.172Z,3.80
2023-07-21T02:06:33.926Z,3.70
2023-07-21T02:09:04.741Z,4.83
2023-07-21T02:11:35.138Z,3.80
2023-07-21T02:14:04.018Z,4.10
2023-07-21T02:16:32.967Z,4.57
2023-07-21T02:19:01.812Z,4.47
2023-07-21T02:21:30.995Z,3.93
2023-07-21T02:23:59.833Z,4.37
2023-07-21T02:26:28.940Z,4.60
2023-07-21T02:28:59.112Z,4.27
2023-07-21T02:31:27.989Z,4.23
2023-07-21T02:33:56.830Z,4.27
2023-07-21T02:36:25.685Z,4.20
2023-07-21T02:38:54.735Z,4.30
2023-07-21T02:41:23.562Z,3.70
2023-07-21T02:43:52.417Z,4.33
2023-07-21T02:46:22.795Z,4.07
2023-07-21T02:48:51.763Z,4.20
2023-07-21T02:51:20.579Z,3.90
2023-07-21T02:53:50.237Z,3.97
2023-07-21T02:56:18.941Z,4.37
2023-07-21T02:58:47.748Z,4.10
2023-07-21T03:01:17.412Z,4.20
2023-07-21T03:03:47.848Z,3.63
2023-07-21T03:06:16.953Z,4.53
2023-07-21T03:08:45.824Z,4.07
2023-07-21T03:11:15.545Z,3.67
2023-07-21T03:13:45.081Z,4.00
2023-07-21T03:16:14.780Z,3.63
2023-07-21T03:18:43.802Z,4.00
2023-07-21T03:21:14.216Z,4.10
2023-07-21T03:23:42.989Z,3.70
2023-07-21T03:26:11.687Z,3.63
2023-07-21T03:28:40.658Z,3.93
2023-07-21T03:31:10.480Z,3.90
2023-07-21T03:33:39.299Z,3.90
2023-07-21T03:36:08.582Z,4.03
2023-07-21T03:38:38.795Z,4.10
2023-07-21T03:41:08.635Z,4.03
2023-07-21T03:43:38.398Z,3.57
2023-07-21T03:46:09.148Z,4.40
2023-07-21T03:48:38.051Z,3.90
2023-07-21T03:51:08.400Z,3.53
2023-07-21T03:53:38.598Z,4.20
2023-07-21T03:56:08.131Z,3.17
2023-07-21T03:58:36.949Z,3.80
2023-07-21T04:01:06.378Z,4.10
2023-07-21T04:03:35.290Z,3.93
2023-07-21T04:06:09.409Z,3.63
2023-07-21T04:08:40.052Z,3.47
2023-07-21T04:11:08.843Z,4.60
2023-07-21T04:13:37.527Z,4.30
2023-07-21T04:16:06.945Z,4.97
2023-07-21T04:18:37.475Z,4.67
2023-07-21T04:21:06.212Z,4.03
2023-07-21T04:23:36.098Z,4.07
2023-07-21T04:26:08.538Z,4.10
2023-07-21T04:28:37.369Z,5.17
2023-07-21T04:31:06.706Z,4.60
2023-07-21T04:33:36.743Z,4.30
2023-07-21T04:36:05.670Z,5.10
2023-07-21T04:38:34.512Z,5.10
2023-07-21T04:41:03.255Z,4.10
2023-07-21T04:43:33.486Z,4.63
2023-07-21T04:46:02.235Z,4.63
2023-07-21T04:48:31.067Z,4.40
2023-07-21T04:50:59.878Z,4.73
2023-07-21T04:53:28.722Z,5.10
2023-07-21T04:55:58.888Z,4.97
2023-07-21T04:58:27.980Z,5.20
2023-07-21T05:00:58.392Z,4.23
2023-07-21T05:03:27.437Z,4.23
2023-07-21T05:05:56.413Z,4.03
2023-07-21T05:08:26.896Z,3.80
2023-07-21T05:10:56.868Z,4.23
2023-07-21T05:13:26.043Z,4.20
2023-07-21T05:15:55.838Z,4.00
2023-07-21T05:18:26.391Z,4.00
2023-07-21T05:20:55.099Z,3.70
2023-07-21T05:23:24.321Z,3.60
2023-07-21T05:26:03.865Z,2.90
2023-07-21T05:28:32.768Z,3.60
2023-07-21T05:31:01.499Z,3.30
2023-07-21T05:33:31.696Z,3.17
2023-07-21T05:36:08.993Z,2.97
2023-07-21T05:38:38.499Z,3.10
2023-07-21T05:41:08.746Z,3.13
2023-07-21T05:43:37.928Z,3.10
2023-07-21T05:46:08.518Z,2.93
2023-07-21T05:48:39.236Z,3.40
2023-07-21T05:51:13.518Z,2.93
2023-07-21T05:53:42.428Z,2.90
2023-07-21T05:56:12.780Z,2.60
2023-07-21T05:58:42.974Z,2.30
2023-07-21T06:01:12.749Z,3.10
2023-07-21T06:03:43.075Z,2.23
2023-07-21T06:06:12.075Z,2.70
2023-07-21T06:08:40.756Z,2.83
2023-07-21T06:11:09.539Z,2.93
2023-07-21T06:13:38.367Z,3.10
2023-07-21T06:16:09.354Z,2.57
2023-07-21T06:18:38.036Z,3.10
2023-07-21T06:21:08.192Z,2.20
2023-07-21T06:23:37.240Z,2.50
2023-07-21T06:26:06.607Z,3.47
2023-07-21T06:28:36.170Z,2.30
2023-07-21T06:31:05.862Z,2.13
2023-07-21T06:33:34.786Z,2.40
2023-07-21T06:36:03.473Z,2.53
2023-07-21T06:38:34.162Z,2.50
2023-07-21T06:41:06.322Z,2.60
2023-07-21T06:43:35.115Z,2.37
2023-07-21T06:46:05.446Z,2.60
2023-07-21T06:48:34.521Z,2.33
2023-07-21T06:51:04.793Z,2.03
2023-07-21T06:53:35.205Z,2.00
2023-07-21T06:56:05.135Z,1.70
2023-07-21T06:58:33.852Z,1.60
2023-07-21T07:01:03.263Z,2.00
2023-07-21T07:03:31.984Z,2.40
2023-07-21T07:06:00.893Z,3.97
2023-07-21T07:08:29.759Z,2.20
2023-07-21T07:11:00.074Z,1.63
2023-07-21T07:13:28.871Z,1.27
2023-07-21T07:15:58.005Z,1.73
2023-07-21T07:18:27.740Z,1.33
2023-07-21T07:20:58.185Z,1.47
2023-07-21T07:23:26.933Z,1.17
2023-07-21T07:25:56.544Z,1.37
2023-07-21T07:28:27.309Z,1.80
2023-07-21T07:30:56.077Z,1.10
2023-07-21T07:33:24.888Z,1.00
2023-07-21T07:35:54.918Z,1.60
2023-07-21T07:38:28.405Z,0.80
2023-07-21T07:41:02.703Z,0.90
2023-07-21T07:43:33.854Z,0.80
2023-07-21T07:46:03.446Z,0.70
2023-07-21T07:48:33.435Z,1.00
2023-07-21T07:51:05.025Z,0.90
2023-07-21T07:53:34.416Z,1.10
2023-07-21T07:56:03.399Z,1.30
2023-07-21T07:58:35.530Z,1.50
2023-07-21T08:01:06.178Z,1.13
2023-07-21T08:03:35.229Z,1.10
2023-07-21T08:06:04.081Z,1.08
2023-07-21T08:08:32.841Z,1.10
2023-07-21T08:11:03.811Z,1.30
2023-07-21T08:13:34.283Z,0.70
2023-07-21T08:16:05.154Z,1.25
2023-07-21T08:18:34.482Z,0.90
2023-07-21T08:21:20.803Z,1.30
2023-07-21T08:23:50.857Z,0.80
2023-07-21T08:26:21.548Z,1.00
2023-07-21T08:28:55.956Z,1.00
2023-07-21T08:31:25.206Z,0.68
2023-07-21T08:33:56.925Z,0.82
2023-07-21T08:36:34.060Z,1.10
2023-07-21T08:39:12.777Z,1.00
2023-07-21T08:41:47.750Z,0.90
2023-07-21T08:44:19.105Z,0.80
2023-07-21T08:46:49.101Z,1.00
2023-07-21T08:49:19.777Z,0.90
2023-07-21T08:51:48.519Z,1.30
2023-07-21T08:54:17.380Z,1.10
2023-07-21T08:56:46.244Z,1.13
2023-07-21T08:59:16.374Z,1.23
2023-07-21T09:01:45.135Z,0.73
2023-07-21T09:04:21.231Z,0.87
2023-07-21T09:06:53.856Z,0.90
2023-07-21T09:09:23.456Z,1.07
2023-07-21T09:11:52.399Z,1.00
2023-07-21T09:14:31.522Z,0.97
2023-07-21T09:17:00.680Z,1.10
2023-07-21T09:19:29.527Z,1.07
2023-07-21T09:21:58.397Z,0.90
2023-07-21T09:24:27.148Z,1.13
2023-07-21T09:27:13.433Z,0.87
2023-07-21T09:29:43.830Z,1.17
2023-07-21T09:32:16.712Z,0.60
2023-07-21T09:35:07.413Z,0.90
2023-07-21T09:37:37.156Z,1.00
2023-07-21T09:40:07.742Z,1.45
2023-07-21T09:42:36.427Z,0.80
2023-07-21T09:45:08.253Z,0.90
2023-07-21T09:47:42.466Z,0.80
2023-07-21T09:50:13.981Z,0.70
2023-07-21T09:52:52.083Z,0.80
2023-07-21T09:55:47.081Z,0.73
2023-07-21T09:58:19.524Z,0.68
2023-07-21T10:00:50.690Z,0.75
2023-07-21T10:03:20.274Z,0.68
2023-07-21T10:05:49.195Z,0.80
2023-07-21T10:08:18.202Z,0.90
2023-07-21T10:10:47.125Z,0.70
2023-07-21T10:13:17.976Z,0.70
2023-07-21T10:15:50.688Z,0.88
2023-07-21T10:18:21.282Z,0.75
2023-07-21T10:20:51.582Z,0.80
2023-07-21T10:23:27.243Z,0.90
2023-07-21T10:26:03.234Z,0.82
2023-07-21T10:28:40.995Z,0.85
2023-07-21T10:31:37.894Z,0.70
2023-07-21T10:34:11.556Z,0.60
2023-07-21T10:36:59.967Z,0.60
2023-07-21T10:39:30.956Z,0.80
2023-07-21T10:42:01.641Z,0.80
2023-07-21T10:44:38.047Z,0.80
2023-07-21T10:47:13.862Z,0.80
2023-07-21T10:49:42.889Z,1.00
2023-07-21T10:52:11.961Z,0.90
2023-07-21T10:54:41.626Z,0.80
2023-07-21T10:57:11.195Z,0.70
2023-07-21T10:59:40.550Z,1.10
2023-07-21T11:02:11.045Z,0.70
2023-07-21T11:04:42.228Z,0.80
2023-07-21T11:07:11.518Z,1.10
2023-07-21T11:09:47.229Z,0.70
2023-07-21T11:12:16.149Z,1.50
2023-07-21T11:14:45.522Z,0.90
2023-07-21T11:17:15.683Z,0.90
2023-07-21T11:19:44.363Z,0.70
2023-07-21T11:22:13.587Z,1.05
2023-07-21T11:24:42.403Z,1.00
2023-07-21T11:27:13.016Z,0.90
2023-07-21T11:29:44.030Z,1.02
2023-07-21T11:32:21.439Z,0.80
2023-07-21T11:34:58.105Z,0.85
2023-07-21T11:37:26.955Z,1.02
2023-07-21T11:39:59.642Z,0.80
2023-07-21T11:42:43.186Z,0.85
2023-07-21T11:45:40.853Z,1.13
2023-07-21T11:48:17.181Z,1.17
2023-07-21T11:50:52.613Z,1.05
2023-07-21T11:53:24.730Z,1.20
2023-07-21T11:55:54.480Z,1.05
2023-07-21T11:58:23.626Z,0.98
2023-07-21T12:00:52.431Z,1.05
2023-07-21T12:03:23.569Z,1.08
2023-07-21T12:05:52.425Z,1.30
2023-07-21T12:08:21.381Z,0.93
2023-07-21T12:10:50.504Z,1.10
2023-07-21T12:13:19.299Z,1.27
2023-07-21T12:15:48.384Z,1.35
2023-07-21T12:18:17.486Z,0.90
2023-07-21T12:20:47.666Z,1.20
2023-07-21T12:23:16.866Z,1.02
2023-07-21T12:25:45.985Z,1.10
2023-07-21T12:28:15.232Z,1.02
2023-07-21T12:30:44.346Z,1.10
2023-07-21T12:33:13.269Z,0.80
2023-07-21T12:35:42.797Z,1.25
2023-07-21T12:38:16.897Z,1.10
2023-07-21T12:40:46.291Z,1.58
2023-07-21T12:43:15.151Z,1.20
2023-07-21T12:45:44.470Z,0.90
2023-07-21T12:48:13.508Z,1.10
2023-07-21T12:50:42.329Z,1.10
2023-07-21T12:53:12.896Z,1.35
2023-07-21T12:55:41.789Z,1.40
2023-07-21T12:58:10.777Z,0.93
2023-07-21T13:00:39.880Z,1.00
2023-07-21T13:03:08.996Z,1.10
2023-07-21T13:05:54.110Z,1.10
2023-07-21T13:08:26.935Z,1.00
2023-07-21T13:10:56.277Z,1.10
2023-07-21T13:13:25.593Z,1.10
2023-07-21T13:15:55.042Z,1.20
2023-07-21T13:18:24.899Z,1.52
2023-07-21T13:20:54.152Z,1.63
2023-07-21T13:23:23.719Z,1.30
2023-07-21T13:25:54.322Z,0.93
2023-07-21T13:28:23.211Z,1.20
2023-07-21T13:30:52.791Z,1.00
2023-07-21T13:33:21.544Z,1.20
2023-07-21T13:35:51.727Z,1.38
2023-07-21T13:38:20.565Z,1.50
2023-07-21T13:40:49.684Z,0.93
2023-07-21T13:43:20.485Z,1.00
2023-07-21T13:45:50.116Z,1.15
2023-07-21T13:48:19.538Z,1.88
2023-07-21T13:50:49.054Z,1.25
2023-07-21T13:53:18.673Z,0.95
2023-07-21T13:55:47.533Z,1.33
2023-07-21T13:58:17.092Z,1.38
2023-07-21T14:00:49.686Z,1.30
2023-07-21T14:03:19.702Z,1.23
2023-07-21T14:05:49.528Z,1.00
2023-07-21T14:08:19.294Z,1.05
2023-07-21T14:10:48.295Z,1.10
2023-07-21T14:13:19.057Z,1.08
2023-07-21T14:15:49.712Z,1.10
2023-07-21T14:18:19.646Z,1.50
2023-07-21T14:20:50.486Z,1.10
2023-07-21T14:23:21.127Z,3.00
2023-07-21T14:25:51.105Z,1.67
2023-07-21T14:28:20.451Z,1.30
2023-07-21T14:30:51.245Z,1.30
2023-07-21T14:33:20.379Z,1.33
2023-07-21T14:35:49.797Z,1.00
2023-07-21T14:38:21.943Z,1.10
2023-07-21T14:40:51.695Z,1.37
2023-07-21T14:43:21.756Z,1.30
2023-07-21T14:45:52.725Z,1.13
2023-07-21T14:48:23.121Z,1.30
2023-07-21T14:50:52.532Z,1.93
2023-07-21T14:53:21.745Z,1.10
2023-07-21T14:55:50.992Z,1.10
2023-07-21T14:58:19.944Z,1.67
2023-07-21T15:00:49.102Z,1.40
2023-07-21T15:03:19.792Z,1.50
2023-07-21T15:05:48.665Z,1.70
2023-07-21T15:08:17.489Z,1.37
2023-07-21T15:10:47.115Z,1.30
2023-07-21T15:13:16.128Z,1.50
2023-07-21T15:15:44.933Z,1.77
2023-07-21T15:18:13.926Z,2.00
2023-07-21T15:20:44.226Z,1.93
2023-07-21T15:23:12.995Z,1.80
2023-07-21T15:25:43.804Z,1.50
2023-07-21T15:28:13.328Z,1.90
2023-07-21T15:30:44.618Z,1.70
2023-07-21T15:33:14.286Z,1.80
2023-07-21T15:35:47.769Z,1.80
2023-07-21T15:38:16.559Z,1.80
2023-07-21T15:40:45.560Z,1.53
2023-07-21T15:43:15.662Z,1.57
2023-07-21T15:45:44.914Z,1.37
2023-07-21T15:48:14.141Z,1.67
2023-07-21T15:50:43.282Z,1.60
2023-07-21T15:53:13.607Z,1.23
2023-07-21T15:55:42.513Z,1.57
2023-07-21T15:58:12.229Z,1.47
2023-07-21T16:00:41.832Z,1.47
2023-07-21T16:03:11.344Z,1.50
2023-07-21T16:05:40.680Z,1.20
2023-07-21T16:08:10.491Z,1.53
2023-07-21T16:10:43.483Z,1.57
2023-07-21T16:13:12.820Z,1.33
2023-07-21T16:15:42.008Z,1.97
2023-07-21T16:18:11.257Z,1.30
2023-07-21T16:20:40.400Z,1.60
2023-07-21T16:23:09.339Z,1.83
2023-07-21T16:25:40.251Z,1.80
2023-07-21T16:28:09.312Z,1.60
2023-07-21T16:30:40.261Z,1.80
2023-07-21T16:33:09.830Z,1.63
2023-07-21T16:35:38.824Z,1.60
2023-07-21T16:38:09.216Z,2.67
2023-07-21T16:40:41.368Z,2.23
2023-07-21T16:43:10.700Z,1.93
2023-07-21T16:45:43.872Z,2.60
2023-07-21T16:48:13.991Z,2.20
2023-07-21T16:50:43.808Z,3.17
2023-07-21T16:53:13.128Z,2.73
2023-07-21T16:55:43.482Z,2.60
2023-07-21T16:58:14.394Z,2.90
2023-07-21T17:00:43.833Z,2.30
2023-07-21T17:03:14.106Z,2.23
2023-07-21T17:05:45.172Z,2.40
2023-07-21T17:08:15.418Z,2.47
2023-07-21T17:10:47.038Z,3.27
2023-07-21T17:13:16.373Z,2.57
2023-07-21T17:15:45.710Z,2.50
2023-07-21T17:18:15.924Z,2.90
2023-07-21T17:20:46.211Z,3.13
2023-07-21T17:23:16.448Z,2.67
2023-07-21T17:25:46.875Z,3.40
2023-07-21T17:28:16.905Z,2.90
2023-07-21T17:30:47.761Z,3.50
2023-07-21T17:33:16.644Z,3.30
2023-07-21T17:35:46.179Z,3.63
2023-07-21T17:38:15.231Z,3.40
2023-07-21T17:40:47.008Z,3.03
2023-07-21T17:43:17.630Z,3.13
2023-07-21T17:45:47.242Z,3.03
2023-07-21T17:48:18.021Z,3.10
2023-07-21T17:50:48.213Z,3.53
2023-07-21T17:53:17.122Z,3.60
2023-07-21T17:55:48.416Z,3.10
2023-07-21T17:58:17.800Z,3.00
2023-07-21T18:00:48.543Z,3.27
2023-07-21T18:03:18.519Z,3.80
2023-07-21T18:05:49.413Z,2.67
2023-07-21T18:08:19.572Z,3.10
2023-07-21T18:10:51.877Z,3.07
2023-07-21T18:13:27.127Z,3.03
2023-07-21T18:15:57.588Z,3.40
2023-07-21T18:18:26.940Z,3.33
2023-07-21T18:21:05.763Z,3.23
2023-07-21T18:23:36.494Z,3.23
2023-07-21T18:26:07.630Z,3.50
2023-07-21T18:28:37.561Z,3.03
2023-07-21T18:31:09.409Z,3.27
2023-07-21T18:33:40.074Z,3.03
2023-07-21T18:36:13.173Z,3.10
2023-07-21T18:38:43.927Z,4.07
2023-07-21T18:41:16.347Z,3.00
2023-07-21T18:43:47.033Z,3.30
2023-07-21T18:46:17.295Z,3.40
2023-07-21T18:48:47.197Z,3.57
2023-07-21T18:51:16.627Z,3.63
2023-07-21T18:53:45.472Z,3.43
2023-07-21T18:56:20.138Z,3.30
2023-07-21T18:58:52.535Z,3.30
2023-07-21T19:01:25.485Z,3.27
2023-07-21T19:03:56.062Z,3.17
2023-07-21T19:06:25.890Z,3.37
2023-07-21T19:08:55.810Z,3.40
2023-07-21T19:11:27.055Z,3.80
2023-07-21T19:13:56.155Z,3.30
2023-07-21T19:16:27.045Z,3.20
2023-07-21T19:18:56.588Z,3.50
2023-07-21T19:21:26.644Z,3.87
2023-07-21T19:23:57.968Z,3.23
2023-07-21T19:26:30.287Z,3.30
2023-07-21T19:29:00.554Z,3.00
2023-07-21T19:31:33.956Z,2.97
2023-07-21T19:34:05.130Z,2.33
2023-07-21T19:36:34.984Z,2.60
2023-07-21T19:39:04.680Z,2.83
2023-07-21T19:41:36.579Z,3.37
2023-07-21T19:44:06.144Z,3.13
2023-07-21T19:46:36.768Z,3.27
2023-07-21T19:49:07.620Z,3.27
2023-07-21T19:51:39.204Z,3.30
2023-07-21T19:54:10.458Z,4.53
2023-07-21T19:56:43.675Z,4.00
2023-07-21T19:59:12.591Z,3.87
2023-07-21T20:01:41.643Z,3.90
2023-07-21T20:04:11.167Z,4.00
2023-07-21T20:06:40.424Z,4.40
2023-07-21T20:09:10.040Z,4.47
2023-07-21T20:11:40.927Z,4.07
2023-07-21T20:14:09.844Z,4.93
2023-07-21T20:16:38.861Z,5.43
2023-07-21T20:19:08.290Z,4.80
2023-07-21T20:21:37.183Z,5.10
2023-07-21T20:24:06.422Z,4.93
2023-07-21T20:26:35.216Z,5.70
2023-07-21T20:29:05.637Z,5.20
2023-07-21T20:31:34.870Z,5.70
2023-07-21T20:34:05.980Z,5.47
2023-07-21T20:36:34.774Z,5.50
2023-07-21T20:39:03.662Z,6.27
2023-07-21T20:41:32.705Z,5.30
2023-07-21T20:44:01.484Z,6.10
2023-07-21T20:46:31.934Z,5.00
2023-07-21T20:49:00.944Z,5.83
2023-07-21T20:51:29.785Z,5.97
2023-07-21T20:53:59.001Z,5.57
2023-07-21T20:56:28.851Z,5.70
2023-07-21T20:58:58.367Z,5.70
2023-07-21T21:01:27.280Z,6.37
2023-07-21T21:03:57.776Z,6.53
2023-07-21T21:06:26.830Z,5.83
2023-07-21T21:08:55.868Z,5.53
2023-07-21T21:11:24.697Z,5.50
2023-07-21T21:13:53.541Z,4.70
2023-07-21T21:16:22.568Z,5.80
2023-07-21T21:18:51.502Z,5.80
2023-07-21T21:21:21.705Z,5.60
2023-07-21T21:23:50.438Z,6.17
2023-07-21T21:26:19.154Z,5.70
2023-07-21T21:28:48.014Z,6.50
2023-07-21T21:31:16.715Z,5.40
2023-07-21T21:33:45.534Z,6.50
2023-07-21T21:36:14.335Z,6.43
2023-07-21T21:38:44.493Z,5.80
2023-07-21T21:41:13.314Z,7.30
2023-07-21T21:43:42.108Z,6.60
2023-07-21T21:46:10.962Z,6.00
2023-07-21T21:48:39.715Z,4.27
2023-07-21T21:51:08.492Z,5.03
2023-07-21T21:53:37.350Z,4.43
2023-07-21T21:56:07.725Z,4.87
2023-07-21T21:58:36.557Z,4.50
2023-07-21T22:01:05.427Z,4.57
2023-07-21T22:03:36.600Z,4.10
2023-07-21T22:06:05.931Z,4.30
2023-07-21T22:08:34.766Z,3.80
2023-07-21T22:11:04.848Z,4.40
2023-07-21T22:13:35.360Z,4.10
2023-07-21T22:16:05.147Z,4.10
2023-07-21T22:18:33.990Z,4.60
2023-07-21T22:21:04.649Z,4.00
2023-07-21T22:23:33.460Z,4.20
2023-07-21T22:26:07.046Z,3.50
2023-07-21T22:28:37.376Z,4.50
2023-07-21T22:31:14.567Z,4.87
2023-07-21T22:33:43.604Z,5.47
2023-07-21T22:36:13.373Z,5.00
2023-07-21T22:38:42.611Z,5.20
2023-07-21T22:41:14.181Z,5.43
2023-07-21T22:43:44.415Z,5.90
2023-07-21T22:46:13.322Z,6.20
2023-07-21T22:48:42.296Z,5.93
2023-07-21T22:51:11.108Z,6.00
2023-07-21T22:53:41.371Z,6.30
2023-07-21T22:56:11.033Z,6.33
2023-07-21T22:58:39.989Z,7.27
2023-07-21T23:01:12.134Z,6.30
2023-07-21T23:03:40.900Z,7.20
2023-07-21T23:06:09.719Z,7.23
2023-07-21T23:08:38.471Z,6.13
2023-07-21T23:11:07.180Z,6.17
2023-07-21T23:13:35.945Z,5.93
2023-07-21T23:16:04.872Z,6.10
2023-07-21T23:18:35.094Z,6.23
2023-07-21T23:21:03.920Z,5.60
2023-07-21T23:23:32.811Z,5.50
2023-07-21T23:26:04.417Z,5.43
2023-07-21T23:28:33.168Z,6.30
2023-07-21T23:31:05.489Z,5.70
2023-07-21T23:33:36.117Z,5.70
2023-07-21T23:36:05.079Z,5.53
2023-07-21T23:38:34.076Z,5.30
2023-07-21T23:41:03.349Z,4.30
2023-07-21T23:43:32.132Z,5.10
2023-07-21T23:46:01.053Z,5.47
2023-07-21T23:48:29.877Z,5.13
2023-07-21T23:51:00.064Z,4.87
2023-07-21T23:53:29.083Z,5.27
2023-07-21T23:55:58.194Z,5.30
2023-07-21T23:58:26.997Z,4.00
